sensor_id;sensor_type;location;lat;lon;timestamp;P1;durP1;ratioP1;P2;durP2;ratioP2
29330;SDS011;16331;52.528;13.342;2023-07-30T00:02:05;8.85;;;5.18;;
29330;SDS011;16331;52.528;13.342;2023-07-30T00:04:31;6.45;;;4.13;;
29330;SDS011;16331;52.528;13.342;2023-07-30T00:06:58;7.72;;;4.45;;
29330;SDS011;16331;52.528;13.342;2023-07-30T00:09:24;7.68;;;4.72;;
29330;SDS011;16331;52.528;13.342;2023-07-30T00:11:50;7.38;;;4.90;;
29330;SDS011;16331;52.528;13.342;2023-07-30T00:14:16;7.18;;;4.55;;
29330;SDS011;16331;52.528;13.342;2023-07-30T00:16:44;6.97;;;4.53;;
29330;SDS011;16331;52.528;13.342;2023-07-30T00:19:10;6.80;;;4.45;;
29330;SDS011;16331;52.528;13.342;2023-07-30T00:21:36;6.50;;;4.55;;
29330;SDS011;16331;52.528;13.342;2023-07-30T00:24:02;8.70;;;4.72;;
29330;SDS011;16331;52.528;13.342;2023-07-30T00:26:30;7.45;;;4.43;;
29330;SDS011;16331;52.528;13.342;2023-07-30T00:28:58;8.48;;;4.65;;
29330;SDS011;16331;52.528;13.342;2023-07-30T00:31:26;6.22;;;4.50;;
29330;SDS011;16331;52.528;13.342;2023-07-30T00:33:52;6.85;;;4.35;;
29330;SDS011;16331;52.528;13.342;2023-07-30T00:36:19;10.93;;;4.20;;
29330;SDS011;16331;52.528;13.342;2023-07-30T00:38:45;7.13;;;3.78;;
29330;SDS011;16331;52.528;13.342;2023-07-30T00:41:11;6.03;;;4.05;;
29330;SDS011;16331;52.528;13.342;2023-07-30T00:43:37;9.35;;;3.88;;
29330;SDS011;16331;52.528;13.342;2023-07-30T00:46:03;5.00;;;3.53;;
29330;SDS011;16331;52.528;13.342;2023-07-30T00:48:30;9.38;;;4.28;;
29330;SDS011;16331;52.528;13.342;2023-07-30T00:50:57;5.22;;;4.05;;
29330;SDS011;16331;52.528;13.342;2023-07-30T00:53:24;5.15;;;3.88;;
29330;SDS011;16331;52.528;13.342;2023-07-30T00:55:52;5.70;;;3.70;;
29330;SDS011;16331;52.528;13.342;2023-07-30T00:58:20;6.13;;;3.75;;
29330;SDS011;16331;52.528;13.342;2023-07-30T01:00:48;5.35;;;2.95;;
29330;SDS011;16331;52.528;13.342;2023-07-30T01:03:15;5.70;;;3.63;;
29330;SDS011;16331;52.528;13.342;2023-07-30T01:05:42;4.43;;;3.50;;
29330;SDS011;16331;52.528;13.342;2023-07-30T01:08:10;10.27;;;3.83;;
29330;SDS011;16331;52.528;13.342;2023-07-30T01:10:38;5.57;;;3.63;;
29330;SDS011;16331;52.528;13.342;2023-07-30T01:13:07;6.10;;;4.13;;
29330;SDS011;16331;52.528;13.342;2023-07-30T01:15:34;5.03;;;3.90;;
29330;SDS011;16331;52.528;13.342;2023-07-30T01:18:01;6.32;;;4.03;;
29330;SDS011;16331;52.528;13.342;2023-07-30T01:20:30;12.70;;;6.57;;
29330;SDS011;16331;52.528;13.342;2023-07-30T01:22:57;6.90;;;4.40;;
29330;SDS011;16331;52.528;13.342;2023-07-30T01:25:28;5.72;;;3.78;;
29330;SDS011;16331;52.528;13.342;2023-07-30T01:27:59;6.07;;;3.55;;
29330;SDS011;16331;52.528;13.342;2023-07-30T01:30:41;6.15;;;4.10;;
29330;SDS011;16331;52.528;13.342;2023-07-30T01:33:10;6.18;;;3.70;;
29330;SDS011;16331;52.528;13.342;2023-07-30T01:35:37;7.40;;;4.15;;
29330;SDS011;16331;52.528;13.342;2023-07-30T01:38:05;6.13;;;3.92;;
29330;SDS011;16331;52.528;13.342;2023-07-30T01:40:33;9.68;;;5.03;;
29330;SDS011;16331;52.528;13.342;2023-07-30T01:42:59;10.73;;;4.43;;
29330;SDS011;16331;52.528;13.342;2023-07-30T01:45:26;5.40;;;3.90;;
29330;SDS011;16331;52.528;13.342;2023-07-30T01:47:54;9.07;;;4.13;;
29330;SDS011;16331;52.528;13.342;2023-07-30T01:50:20;5.30;;;3.78;;
29330;SDS011;16331;52.528;13.342;2023-07-30T01:52:46;7.70;;;3.45;;
29330;SDS011;16331;52.528;13.342;2023-07-30T01:55:13;7.38;;;4.50;;
29330;SDS011;16331;52.528;13.342;2023-07-30T01:57:39;5.35;;;3.38;;
29330;SDS011;16331;52.528;13.342;2023-07-30T02:00:06;6.53;;;3.70;;
29330;SDS011;16331;52.528;13.342;2023-07-30T02:02:32;7.57;;;3.90;;
29330;SDS011;16331;52.528;13.342;2023-07-30T02:05:00;4.80;;;4.00;;
29330;SDS011;16331;52.528;13.342;2023-07-30T02:07:27;6.68;;;3.70;;
29330;SDS011;16331;52.528;13.342;2023-07-30T02:09:53;6.57;;;3.83;;
29330;SDS011;16331;52.528;13.342;2023-07-30T02:12:19;5.53;;;3.53;;
29330;SDS011;16331;52.528;13.342;2023-07-30T02:14:47;6.15;;;4.95;;
29330;SDS011;16331;52.528;13.342;2023-07-30T02:17:13;6.60;;;4.18;;
29330;SDS011;16331;52.528;13.342;2023-07-30T02:19:41;7.95;;;4.38;;
29330;SDS011;16331;52.528;13.342;2023-07-30T02:22:07;8.70;;;4.28;;
29330;SDS011;16331;52.528;13.342;2023-07-30T02:24:33;6.22;;;4.55;;
29330;SDS011;16331;52.528;13.342;2023-07-30T02:26:59;5.35;;;3.90;;
29330;SDS011;16331;52.528;13.342;2023-07-30T02:29:25;5.78;;;4.55;;
29330;SDS011;16331;52.528;13.342;2023-07-30T02:31:52;6.68;;;4.63;;
29330;SDS011;16331;52.528;13.342;2023-07-30T02:34:20;8.73;;;4.85;;
29330;SDS011;16331;52.528;13.342;2023-07-30T02:36:46;6.18;;;4.90;;
29330;SDS011;16331;52.528;13.342;2023-07-30T02:39:13;7.55;;;4.68;;
29330;SDS011;16331;52.528;13.342;2023-07-30T02:41:41;5.45;;;4.13;;
29330;SDS011;16331;52.528;13.342;2023-07-30T02:44:08;6.15;;;4.70;;
29330;SDS011;16331;52.528;13.342;2023-07-30T02:46:35;5.07;;;4.03;;
29330;SDS011;16331;52.528;13.342;2023-07-30T02:49:01;5.72;;;4.18;;
29330;SDS011;16331;52.528;13.342;2023-07-30T02:51:27;7.53;;;4.28;;
29330;SDS011;16331;52.528;13.342;2023-07-30T02:53:56;5.60;;;4.20;;
29330;SDS011;16331;52.528;13.342;2023-07-30T02:56:24;5.80;;;4.35;;
29330;SDS011;16331;52.528;13.342;2023-07-30T02:58:51;5.78;;;4.05;;
29330;SDS011;16331;52.528;13.342;2023-07-30T03:01:17;8.73;;;4.15;;
29330;SDS011;16331;52.528;13.342;2023-07-30T03:03:43;5.88;;;4.38;;
29330;SDS011;16331;52.528;13.342;2023-07-30T03:06:09;4.72;;;3.97;;
29330;SDS011;16331;52.528;13.342;2023-07-30T03:08:35;4.30;;;3.50;;
29330;SDS011;16331;52.528;13.342;2023-07-30T03:11:03;5.05;;;4.00;;
29330;SDS011;16331;52.528;13.342;2023-07-30T03:13:29;5.70;;;3.88;;
29330;SDS011;16331;52.528;13.342;2023-07-30T03:15:55;6.15;;;4.00;;
29330;SDS011;16331;52.528;13.342;2023-07-30T03:18:21;6.15;;;4.20;;
29330;SDS011;16331;52.528;13.342;2023-07-30T03:20:47;5.65;;;4.13;;
29330;SDS011;16331;52.528;13.342;2023-07-30T03:23:13;8.13;;;4.45;;
29330;SDS011;16331;52.528;13.342;2023-07-30T03:25:39;10.05;;;5.47;;
29330;SDS011;16331;52.528;13.342;2023-07-30T03:28:06;7.55;;;4.10;;
29330;SDS011;16331;52.528;13.342;2023-07-30T03:30:32;5.28;;;3.72;;
29330;SDS011;16331;52.528;13.342;2023-07-30T03:32:59;6.00;;;4.25;;
29330;SDS011;16331;52.528;13.342;2023-07-30T03:35:26;5.75;;;4.63;;
29330;SDS011;16331;52.528;13.342;2023-07-30T03:37:54;7.95;;;4.63;;
29330;SDS011;16331;52.528;13.342;2023-07-30T03:40:21;7.88;;;4.97;;
29330;SDS011;16331;52.528;13.342;2023-07-30T03:42:47;5.50;;;4.20;;
29330;SDS011;16331;52.528;13.342;2023-07-30T03:45:14;6.80;;;4.90;;
29330;SDS011;16331;52.528;13.342;2023-07-30T03:47:41;6.30;;;4.88;;
29330;SDS011;16331;52.528;13.342;2023-07-30T03:50:10;12.02;;;5.43;;
29330;SDS011;16331;52.528;13.342;2023-07-30T03:52:36;7.15;;;4.90;;
29330;SDS011;16331;52.528;13.342;2023-07-30T03:55:02;7.00;;;5.32;;
29330;SDS011;16331;52.528;13.342;2023-07-30T03:57:29;7.68;;;4.40;;
29330;SDS011;16331;52.528;13.342;2023-07-30T03:59:55;7.50;;;5.05;;
29330;SDS011;16331;52.528;13.342;2023-07-30T04:02:21;7.55;;;5.15;;
29330;SDS011;16331;52.528;13.342;2023-07-30T04:04:47;11.70;;;5.45;;
29330;SDS011;16331;52.528;13.342;2023-07-30T04:07:15;10.20;;;6.00;;
29330;SDS011;16331;52.528;13.342;2023-07-30T04:09:41;7.78;;;5.50;;
29330;SDS011;16331;52.528;13.342;2023-07-30T04:12:07;7.78;;;5.35;;
29330;SDS011;16331;52.528;13.342;2023-07-30T04:14:35;8.07;;;4.82;;
29330;SDS011;16331;52.528;13.342;2023-07-30T04:17:02;8.10;;;5.05;;
29330;SDS011;16331;52.528;13.342;2023-07-30T04:19:29;7.05;;;5.05;;
29330;SDS011;16331;52.528;13.342;2023-07-30T04:21:55;7.78;;;5.20;;
29330;SDS011;16331;52.528;13.342;2023-07-30T04:24:21;11.38;;;5.85;;
29330;SDS011;16331;52.528;13.342;2023-07-30T04:26:47;7.15;;;4.63;;
29330;SDS011;16331;52.528;13.342;2023-07-30T04:29:14;5.90;;;4.40;;
29330;SDS011;16331;52.528;13.342;2023-07-30T04:31:41;6.20;;;4.43;;
29330;SDS011;16331;52.528;13.342;2023-07-30T04:34:07;7.57;;;5.60;;
29330;SDS011;16331;52.528;13.342;2023-07-30T04:36:33;6.82;;;4.70;;
29330;SDS011;16331;52.528;13.342;2023-07-30T04:38:59;14.18;;;6.85;;
29330;SDS011;16331;52.528;13.342;2023-07-30T04:41:25;7.80;;;4.70;;
29330;SDS011;16331;52.528;13.342;2023-07-30T04:43:51;5.93;;;4.15;;
29330;SDS011;16331;52.528;13.342;2023-07-30T04:46:18;7.20;;;4.50;;
29330;SDS011;16331;52.528;13.342;2023-07-30T04:48:44;6.80;;;5.05;;
29330;SDS011;16331;52.528;13.342;2023-07-30T04:51:10;7.53;;;5.18;;
29330;SDS011;16331;52.528;13.342;2023-07-30T04:53:36;6.35;;;4.85;;
29330;SDS011;16331;52.528;13.342;2023-07-30T04:56:02;8.45;;;4.95;;
29330;SDS011;16331;52.528;13.342;2023-07-30T04:58:28;6.20;;;4.50;;
29330;SDS011;16331;52.528;13.342;2023-07-30T05:00:54;6.20;;;4.60;;
29330;SDS011;16331;52.528;13.342;2023-07-30T05:03:20;5.32;;;4.45;;
29330;SDS011;16331;52.528;13.342;2023-07-30T05:05:46;5.07;;;3.80;;
29330;SDS011;16331;52.528;13.342;2023-07-30T05:08:12;3.50;;;3.20;;
29330;SDS011;16331;52.528;13.342;2023-07-30T05:10:38;5.80;;;3.65;;
29330;SDS011;16331;52.528;13.342;2023-07-30T05:13:05;4.50;;;3.20;;
29330;SDS011;16331;52.528;13.342;2023-07-30T05:15:31;4.95;;;3.97;;
29330;SDS011;16331;52.528;13.342;2023-07-30T05:17:57;3.72;;;3.05;;
29330;SDS011;16331;52.528;13.342;2023-07-30T05:20:23;4.28;;;3.45;;
29330;SDS011;16331;52.528;13.342;2023-07-30T05:22:51;4.82;;;3.38;;
29330;SDS011;16331;52.528;13.342;2023-07-30T05:25:17;3.97;;;2.80;;
29330;SDS011;16331;52.528;13.342;2023-07-30T05:27:43;4.32;;;3.00;;
29330;SDS011;16331;52.528;13.342;2023-07-30T05:30:09;4.38;;;3.38;;
29330;SDS011;16331;52.528;13.342;2023-07-30T05:32:35;3.55;;;2.72;;
29330;SDS011;16331;52.528;13.342;2023-07-30T05:35:03;6.28;;;2.97;;
29330;SDS011;16331;52.528;13.342;2023-07-30T05:37:30;4.72;;;2.63;;
29330;SDS011;16331;52.528;13.342;2023-07-30T05:39:57;4.22;;;2.83;;
29330;SDS011;16331;52.528;13.342;2023-07-30T05:42:23;4.25;;;2.95;;
29330;SDS011;16331;52.528;13.342;2023-07-30T05:44:49;3.97;;;2.50;;
29330;SDS011;16331;52.528;13.342;2023-07-30T05:47:15;2.38;;;2.17;;
29330;SDS011;16331;52.528;13.342;2023-07-30T05:49:41;5.93;;;3.28;;
29330;SDS011;16331;52.528;13.342;2023-07-30T05:52:07;4.03;;;2.60;;
29330;SDS011;16331;52.528;13.342;2023-07-30T05:54:35;7.63;;;2.83;;
29330;SDS011;16331;52.528;13.342;2023-07-30T05:57:02;5.72;;;3.20;;
29330;SDS011;16331;52.528;13.342;2023-07-30T05:59:28;6.60;;;3.65;;
29330;SDS011;16331;52.528;13.342;2023-07-30T06:01:55;6.20;;;3.30;;
29330;SDS011;16331;52.528;13.342;2023-07-30T06:04:23;3.92;;;3.03;;
29330;SDS011;16331;52.528;13.342;2023-07-30T06:06:52;5.07;;;2.75;;
29330;SDS011;16331;52.528;13.342;2023-07-30T06:09:18;5.03;;;3.42;;
29330;SDS011;16331;52.528;13.342;2023-07-30T06:11:44;4.32;;;3.17;;
29330;SDS011;16331;52.528;13.342;2023-07-30T06:14:10;4.68;;;3.22;;
29330;SDS011;16331;52.528;13.342;2023-07-30T06:16:36;3.60;;;3.00;;
29330;SDS011;16331;52.528;13.342;2023-07-30T06:19:02;2.90;;;2.60;;
29330;SDS011;16331;52.528;13.342;2023-07-30T06:21:29;3.60;;;2.92;;
29330;SDS011;16331;52.528;13.342;2023-07-30T06:23:55;4.85;;;2.65;;
29330;SDS011;16331;52.528;13.342;2023-07-30T06:26:21;4.78;;;2.55;;
29330;SDS011;16331;52.528;13.342;2023-07-30T06:28:48;2.70;;;2.42;;
29330;SDS011;16331;52.528;13.342;2023-07-30T06:31:14;5.55;;;2.70;;
29330;SDS011;16331;52.528;13.342;2023-07-30T06:33:40;3.72;;;2.75;;
29330;SDS011;16331;52.528;13.342;2023-07-30T06:36:06;4.07;;;2.50;;
29330;SDS011;16331;52.528;13.342;2023-07-30T06:38:33;3.83;;;2.63;;
29330;SDS011;16331;52.528;13.342;2023-07-30T06:41:00;5.32;;;2.50;;
29330;SDS011;16331;52.528;13.342;2023-07-30T06:43:26;3.65;;;2.80;;
29330;SDS011;16331;52.528;13.342;2023-07-30T06:45:52;3.50;;;2.15;;
29330;SDS011;16331;52.528;13.342;2023-07-30T06:48:20;3.60;;;2.22;;
29330;SDS011;16331;52.528;13.342;2023-07-30T06:50:46;4.10;;;2.10;;
29330;SDS011;16331;52.528;13.342;2023-07-30T06:53:13;3.15;;;2.03;;
29330;SDS011;16331;52.528;13.342;2023-07-30T06:55:39;2.55;;;2.03;;
29330;SDS011;16331;52.528;13.342;2023-07-30T06:58:05;3.13;;;2.17;;
29330;SDS011;16331;52.528;13.342;2023-07-30T07:00:31;3.22;;;1.95;;
29330;SDS011;16331;52.528;13.342;2023-07-30T07:02:57;5.88;;;2.22;;
29330;SDS011;16331;52.528;13.342;2023-07-30T07:05:23;3.83;;;2.42;;
29330;SDS011;16331;52.528;13.342;2023-07-30T07:07:50;5.68;;;2.50;;
29330;SDS011;16331;52.528;13.342;2023-07-30T07:10:16;7.43;;;2.10;;
29330;SDS011;16331;52.528;13.342;2023-07-30T07:12:43;2.97;;;2.20;;
29330;SDS011;16331;52.528;13.342;2023-07-30T07:15:09;3.78;;;2.30;;
29330;SDS011;16331;52.528;13.342;2023-07-30T07:17:38;6.38;;;2.00;;
29330;SDS011;16331;52.528;13.342;2023-07-30T07:20:08;5.53;;;2.40;;
29330;SDS011;16331;52.528;13.342;2023-07-30T07:22:35;6.45;;;2.25;;
29330;SDS011;16331;52.528;13.342;2023-07-30T07:25:01;4.03;;;2.30;;
29330;SDS011;16331;52.528;13.342;2023-07-30T07:27:29;2.38;;;2.00;;
29330;SDS011;16331;52.528;13.342;2023-07-30T07:29:56;5.40;;;2.03;;
29330;SDS011;16331;52.528;13.342;2023-07-30T07:32:22;4.93;;;2.33;;
29330;SDS011;16331;52.528;13.342;2023-07-30T07:34:50;3.83;;;2.17;;
29330;SDS011;16331;52.528;13.342;2023-07-30T07:37:16;2.92;;;2.28;;
29330;SDS011;16331;52.528;13.342;2023-07-30T07:39:46;3.55;;;2.50;;
29330;SDS011;16331;52.528;13.342;2023-07-30T07:42:12;4.85;;;2.53;;
29330;SDS011;16331;52.528;13.342;2023-07-30T07:44:39;5.90;;;2.72;;
29330;SDS011;16331;52.528;13.342;2023-07-30T07:47:05;3.25;;;2.50;;
29330;SDS011;16331;52.528;13.342;2023-07-30T07:49:31;5.70;;;2.90;;
29330;SDS011;16331;52.528;13.342;2023-07-30T07:51:58;3.85;;;2.97;;
29330;SDS011;16331;52.528;13.342;2023-07-30T07:54:25;5.75;;;2.80;;
29330;SDS011;16331;52.528;13.342;2023-07-30T07:56:52;4.53;;;2.78;;
29330;SDS011;16331;52.528;13.342;2023-07-30T07:59:19;4.38;;;2.60;;
29330;SDS011;16331;52.528;13.342;2023-07-30T08:01:45;5.72;;;3.05;;
29330;SDS011;16331;52.528;13.342;2023-07-30T08:04:11;4.50;;;2.42;;
29330;SDS011;16331;52.528;13.342;2023-07-30T08:06:38;3.47;;;2.50;;
29330;SDS011;16331;52.528;13.342;2023-07-30T08:09:04;4.30;;;3.03;;
29330;SDS011;16331;52.528;13.342;2023-07-30T08:11:33;5.15;;;2.75;;
29330;SDS011;16331;52.528;13.342;2023-07-30T08:13:59;5.10;;;2.72;;
29330;SDS011;16331;52.528;13.342;2023-07-30T08:16:26;6.40;;;2.88;;
29330;SDS011;16331;52.528;13.342;2023-07-30T08:18:52;3.40;;;2.40;;
29330;SDS011;16331;52.528;13.342;2023-07-30T08:21:18;3.65;;;2.40;;
29330;SDS011;16331;52.528;13.342;2023-07-30T08:23:45;4.78;;;2.58;;
29330;SDS011;16331;52.528;13.342;2023-07-30T08:26:12;2.53;;;2.10;;
29330;SDS011;16331;52.528;13.342;2023-07-30T08:28:40;4.72;;;2.72;;
29330;SDS011;16331;52.528;13.342;2023-07-30T08:31:08;2.97;;;2.08;;
29330;SDS011;16331;52.528;13.342;2023-07-30T08:33:36;2.78;;;2.15;;
29330;SDS011;16331;52.528;13.342;2023-07-30T08:36:02;6.50;;;2.00;;
29330;SDS011;16331;52.528;13.342;2023-07-30T08:38:30;5.93;;;2.30;;
29330;SDS011;16331;52.528;13.342;2023-07-30T08:40:56;5.82;;;2.72;;
29330;SDS011;16331;52.528;13.342;2023-07-30T08:43:25;4.85;;;2.40;;
29330;SDS011;16331;52.528;13.342;2023-07-30T08:45:51;5.25;;;2.30;;
29330;SDS011;16331;52.528;13.342;2023-07-30T08:48:18;4.10;;;1.70;;
29330;SDS011;16331;52.528;13.342;2023-07-30T08:50:47;2.90;;;2.13;;
29330;SDS011;16331;52.528;13.342;2023-07-30T08:53:15;8.63;;;1.90;;
29330;SDS011;16331;52.528;13.342;2023-07-30T08:55:41;3.45;;;1.75;;
29330;SDS011;16331;52.528;13.342;2023-07-30T08:58:14;3.72;;;1.80;;
29330;SDS011;16331;52.528;13.342;2023-07-30T09:00:42;4.35;;;1.98;;
29330;SDS011;16331;52.528;13.342;2023-07-30T09:03:10;4.28;;;1.80;;
29330;SDS011;16331;52.528;13.342;2023-07-30T09:05:41;6.28;;;2.20;;
29330;SDS011;16331;52.528;13.342;2023-07-30T09:08:07;4.18;;;1.83;;
29330;SDS011;16331;52.528;13.342;2023-07-30T09:10:35;2.97;;;1.85;;
29330;SDS011;16331;52.528;13.342;2023-07-30T09:13:02;5.28;;;2.03;;
29330;SDS011;16331;52.528;13.342;2023-07-30T09:15:34;7.63;;;3.47;;
29330;SDS011;16331;52.528;13.342;2023-07-30T09:18:05;3.97;;;1.73;;
29330;SDS011;16331;52.528;13.342;2023-07-30T09:20:42;4.00;;;1.83;;
29330;SDS011;16331;52.528;13.342;2023-07-30T09:23:08;8.10;;;2.83;;
29330;SDS011;16331;52.528;13.342;2023-07-30T09:25:35;4.50;;;1.83;;
29330;SDS011;16331;52.528;13.342;2023-07-30T09:28:07;5.13;;;2.13;;
29330;SDS011;16331;52.528;13.342;2023-07-30T09:30:33;3.47;;;1.98;;
29330;SDS011;16331;52.528;13.342;2023-07-30T09:32:59;6.18;;;1.60;;
29330;SDS011;16331;52.528;13.342;2023-07-30T09:35:28;4.38;;;1.70;;
29330;SDS011;16331;52.528;13.342;2023-07-30T09:37:58;5.20;;;2.15;;
29330;SDS011;16331;52.528;13.342;2023-07-30T09:40:31;4.95;;;1.85;;
29330;SDS011;16331;52.528;13.342;2023-07-30T09:42:58;5.22;;;1.70;;
29330;SDS011;16331;52.528;13.342;2023-07-30T09:45:25;3.47;;;1.75;;
29330;SDS011;16331;52.528;13.342;2023-07-30T09:47:52;5.63;;;1.55;;
29330;SDS011;16331;52.528;13.342;2023-07-30T09:50:21;4.53;;;1.65;;
29330;SDS011;16331;52.528;13.342;2023-07-30T09:52:50;2.90;;;1.80;;
29330;SDS011;16331;52.528;13.342;2023-07-30T09:55:16;3.67;;;1.60;;
29330;SDS011;16331;52.528;13.342;2023-07-30T09:57:44;5.32;;;1.55;;
29330;SDS011;16331;52.528;13.342;2023-07-30T10:00:10;4.30;;;1.73;;
29330;SDS011;16331;52.528;13.342;2023-07-30T10:02:45;6.07;;;1.73;;
29330;SDS011;16331;52.528;13.342;2023-07-30T10:05:16;2.95;;;1.52;;
29330;SDS011;16331;52.528;13.342;2023-07-30T10:08:00;8.68;;;2.67;;
29330;SDS011;16331;52.528;13.342;2023-07-30T10:10:33;2.95;;;1.95;;
29330;SDS011;16331;52.528;13.342;2023-07-30T10:13:05;2.95;;;1.40;;
29330;SDS011;16331;52.528;13.342;2023-07-30T10:15:39;5.93;;;1.75;;
29330;SDS011;16331;52.528;13.342;2023-07-30T10:18:07;6.63;;;1.63;;
29330;SDS011;16331;52.528;13.342;2023-07-30T10:20:33;3.58;;;2.35;;
29330;SDS011;16331;52.528;13.342;2023-07-30T10:23:00;3.72;;;1.65;;
29330;SDS011;16331;52.528;13.342;2023-07-30T10:25:29;7.13;;;1.77;;
29330;SDS011;16331;52.528;13.342;2023-07-30T10:28:26;2.33;;;1.40;;
29330;SDS011;16331;52.528;13.342;2023-07-30T10:30:58;4.80;;;1.67;;
29330;SDS011;16331;52.528;13.342;2023-07-30T10:36:30;4.53;;;2.03;;
29330;SDS011;16331;52.528;13.342;2023-07-30T10:41:57;3.17;;;1.60;;
29330;SDS011;16331;52.528;13.342;2023-07-30T10:44:26;3.15;;;1.70;;
29330;SDS011;16331;52.528;13.342;2023-07-30T10:46:54;2.90;;;1.70;;
29330;SDS011;16331;52.528;13.342;2023-07-30T10:49:22;4.22;;;1.58;;
29330;SDS011;16331;52.528;13.342;2023-07-30T10:51:49;2.50;;;1.40;;
29330;SDS011;16331;52.528;13.342;2023-07-30T10:54:21;6.13;;;1.73;;
29330;SDS011;16331;52.528;13.342;2023-07-30T10:56:51;5.90;;;1.73;;
29330;SDS011;16331;52.528;13.342;2023-07-30T10:59:20;3.10;;;1.42;;
29330;SDS011;16331;52.528;13.342;2023-07-30T11:01:47;3.80;;;1.27;;
29330;SDS011;16331;52.528;13.342;2023-07-30T11:04:17;5.55;;;1.52;;
29330;SDS011;16331;52.528;13.342;2023-07-30T11:07:08;4.22;;;1.73;;
29330;SDS011;16331;52.528;13.342;2023-07-30T11:09:41;3.40;;;1.40;;
29330;SDS011;16331;52.528;13.342;2023-07-30T11:12:10;2.55;;;1.30;;
29330;SDS011;16331;52.528;13.342;2023-07-30T11:14:40;2.67;;;1.38;;
29330;SDS011;16331;52.528;13.342;2023-07-30T11:17:08;4.75;;;1.58;;
29330;SDS011;16331;52.528;13.342;2023-07-30T11:19:36;4.20;;;2.10;;
29330;SDS011;16331;52.528;13.342;2023-07-30T11:22:12;2.13;;;1.17;;
29330;SDS011;16331;52.528;13.342;2023-07-30T11:24:38;2.67;;;1.02;;
29330;SDS011;16331;52.528;13.342;2023-07-30T11:27:09;2.53;;;1.35;;
29330;SDS011;16331;52.528;13.342;2023-07-30T11:29:36;2.55;;;1.02;;
29330;SDS011;16331;52.528;13.342;2023-07-30T11:32:02;3.90;;;1.40;;
29330;SDS011;16331;52.528;13.342;2023-07-30T11:34:28;3.97;;;1.73;;
29330;SDS011;16331;52.528;13.342;2023-07-30T11:36:55;5.22;;;1.48;;
29330;SDS011;16331;52.528;13.342;2023-07-30T11:39:23;4.70;;;1.65;;
29330;SDS011;16331;52.528;13.342;2023-07-30T11:41:50;3.28;;;1.10;;
29330;SDS011;16331;52.528;13.342;2023-07-30T11:44:29;1.90;;;1.13;;
29330;SDS011;16331;52.528;13.342;2023-07-30T11:46:56;3.40;;;1.30;;
29330;SDS011;16331;52.528;13.342;2023-07-30T11:49:22;8.85;;;1.30;;
29330;SDS011;16331;52.528;13.342;2023-07-30T11:51:49;2.58;;;1.10;;
29330;SDS011;16331;52.528;13.342;2023-07-30T11:54:28;3.75;;;1.50;;
29330;SDS011;16331;52.528;13.342;2023-07-30T11:56:59;4.57;;;1.30;;
29330;SDS011;16331;52.528;13.342;2023-07-30T11:59:26;3.85;;;1.23;;
29330;SDS011;16331;52.528;13.342;2023-07-30T12:01:52;3.13;;;1.30;;
29330;SDS011;16331;52.528;13.342;2023-07-30T12:04:20;3.50;;;0.98;;
29330;SDS011;16331;52.528;13.342;2023-07-30T12:06:47;5.13;;;1.65;;
29330;SDS011;16331;52.528;13.342;2023-07-30T12:09:18;4.50;;;1.45;;
29330;SDS011;16331;52.528;13.342;2023-07-30T12:12:01;2.83;;;1.55;;
29330;SDS011;16331;52.528;13.342;2023-07-30T12:14:42;3.45;;;1.40;;
29330;SDS011;16331;52.528;13.342;2023-07-30T12:17:11;2.80;;;1.25;;
29330;SDS011;16331;52.528;13.342;2023-07-30T12:19:37;3.80;;;1.60;;
29330;SDS011;16331;52.528;13.342;2023-07-30T12:22:06;4.97;;;1.30;;
29330;SDS011;16331;52.528;13.342;2023-07-30T12:24:33;5.97;;;1.70;;
29330;SDS011;16331;52.528;13.342;2023-07-30T12:27:05;1.83;;;1.33;;
29330;SDS011;16331;52.528;13.342;2023-07-30T12:29:32;4.47;;;1.27;;
29330;SDS011;16331;52.528;13.342;2023-07-30T12:31:58;3.80;;;1.05;;
29330;SDS011;16331;52.528;13.342;2023-07-30T12:34:25;6.05;;;1.40;;
29330;SDS011;16331;52.528;13.342;2023-07-30T12:36:51;4.13;;;1.40;;
29330;SDS011;16331;52.528;13.342;2023-07-30T12:39:17;4.80;;;1.42;;
29330;SDS011;16331;52.528;13.342;2023-07-30T12:41:45;5.32;;;1.50;;
29330;SDS011;16331;52.528;13.342;2023-07-30T12:44:12;5.28;;;1.55;;
29330;SDS011;16331;52.528;13.342;2023-07-30T12:46:39;5.13;;;1.85;;
29330;SDS011;16331;52.528;13.342;2023-07-30T12:49:06;3.38;;;1.25;;
29330;SDS011;16331;52.528;13.342;2023-07-30T12:51:34;3.65;;;1.67;;
29330;SDS011;16331;52.528;13.342;2023-07-30T12:54:01;3.70;;;1.20;;
29330;SDS011;16331;52.528;13.342;2023-07-30T12:56:31;5.05;;;1.85;;
29330;SDS011;16331;52.528;13.342;2023-07-30T12:58:57;5.72;;;1.70;;
29330;SDS011;16331;52.528;13.342;2023-07-30T13:01:23;4.68;;;2.00;;
29330;SDS011;16331;52.528;13.342;2023-07-30T13:03:50;7.43;;;1.80;;
29330;SDS011;16331;52.528;13.342;2023-07-30T13:06:19;7.63;;;2.05;;
29330;SDS011;16331;52.528;13.342;2023-07-30T13:08:48;6.20;;;1.63;;
29330;SDS011;16331;52.528;13.342;2023-07-30T13:11:15;4.57;;;1.50;;
29330;SDS011;16331;52.528;13.342;2023-07-30T13:13:53;4.57;;;2.45;;
29330;SDS011;16331;52.528;13.342;2023-07-30T13:16:20;4.97;;;1.77;;
29330;SDS011;16331;52.528;13.342;2023-07-30T13:18:46;2.95;;;1.25;;
29330;SDS011;16331;52.528;13.342;2023-07-30T13:21:12;5.38;;;1.65;;
29330;SDS011;16331;52.528;13.342;2023-07-30T13:23:46;6.13;;;1.50;;
29330;SDS011;16331;52.528;13.342;2023-07-30T13:26:17;3.55;;;1.33;;
29330;SDS011;16331;52.528;13.342;2023-07-30T13:28:44;5.53;;;1.60;;
29330;SDS011;16331;52.528;13.342;2023-07-30T13:31:17;6.13;;;1.80;;
29330;SDS011;16331;52.528;13.342;2023-07-30T13:33:45;2.55;;;1.35;;
29330;SDS011;16331;52.528;13.342;2023-07-30T13:36:12;3.45;;;1.40;;
29330;SDS011;16331;52.528;13.342;2023-07-30T13:38:57;3.03;;;1.70;;
29330;SDS011;16331;52.528;13.342;2023-07-30T13:41:30;5.03;;;1.77;;
29330;SDS011;16331;52.528;13.342;2023-07-30T13:43:57;4.88;;;1.17;;
29330;SDS011;16331;52.528;13.342;2023-07-30T13:46:23;5.13;;;1.80;;
29330;SDS011;16331;52.528;13.342;2023-07-30T13:48:49;2.22;;;1.33;;
29330;SDS011;16331;52.528;13.342;2023-07-30T13:51:16;3.17;;;1.65;;
29330;SDS011;16331;52.528;13.342;2023-07-30T13:53:45;3.25;;;1.35;;
29330;SDS011;16331;52.528;13.342;2023-07-30T13:56:11;5.95;;;1.20;;
29330;SDS011;16331;52.528;13.342;2023-07-30T13:58:51;2.45;;;1.15;;
29330;SDS011;16331;52.528;13.342;2023-07-30T14:01:38;4.07;;;1.55;;
29330;SDS011;16331;52.528;13.342;2023-07-30T14:04:04;3.15;;;1.25;;
29330;SDS011;16331;52.528;13.342;2023-07-30T14:06:33;3.67;;;1.48;;
29330;SDS011;16331;52.528;13.342;2023-07-30T14:09:04;2.78;;;1.60;;
29330;SDS011;16331;52.528;13.342;2023-07-30T14:11:36;4.75;;;1.58;;
29330;SDS011;16331;52.528;13.342;2023-07-30T14:14:26;5.95;;;1.20;;
29330;SDS011;16331;52.528;13.342;2023-07-30T14:16:53;2.90;;;1.30;;
29330;SDS011;16331;52.528;13.342;2023-07-30T14:19:34;4.32;;;1.88;;
29330;SDS011;16331;52.528;13.342;2023-07-30T14:22:00;2.47;;;1.05;;
29330;SDS011;16331;52.528;13.342;2023-07-30T14:24:27;4.32;;;1.30;;
29330;SDS011;16331;52.528;13.342;2023-07-30T14:26:55;4.15;;;1.25;;
29330;SDS011;16331;52.528;13.342;2023-07-30T14:29:21;9.20;;;1.25;;
29330;SDS011;16331;52.528;13.342;2023-07-30T14:31:49;5.50;;;1.60;;
29330;SDS011;16331;52.528;13.342;2023-07-30T14:34:18;4.53;;;1.10;;
29330;SDS011;16331;52.528;13.342;2023-07-30T14:36:45;5.38;;;1.27;;
29330;SDS011;16331;52.528;13.342;2023-07-30T14:39:11;3.38;;;1.38;;
29330;SDS011;16331;52.528;13.342;2023-07-30T14:41:37;2.38;;;1.02;;
29330;SDS011;16331;52.528;13.342;2023-07-30T14:44:04;3.35;;;1.20;;